sensor_id;sensor_type;location;lat;lon;timestamp;temperature;humidity
35497;DHT22;21609;49.298;6.844;2023-05-02T00:02:00;18.90;54.90
35497;DHT22;21609;49.298;6.844;2023-05-02T00:04:25;18.90;54.90
35497;DHT22;21609;49.298;6.844;2023-05-02T00:06:54;18.90;54.90
35497;DHT22;21609;49.298;6.844;2023-05-02T00:09:20;18.90;54.90
35497;DHT22;21609;49.298;6.844;2023-05-02T00:11:45;18.90;54.90
35497;DHT22;21609;49.298;6.844;2023-05-02T00:14:11;18.90;54.90
35497;DHT22;21609;49.298;6.844;2023-05-02T00:16:36;18.90;54.90
35497;DHT22;21609;49.298;6.844;2023-05-02T00:19:02;18.80;54.90
35497;DHT22;21609;49.298;6.844;2023-05-02T00:21:28;18.80;54.90
35497;DHT22;21609;49.298;6.844;2023-05-02T00:23:54;18.80;54.90
35497;DHT22;21609;49.298;6.844;2023-05-02T00:26:21;18.80;54.90
35497;DHT22;21609;49.298;6.844;2023-05-02T00:28:47;18.80;54.90
35497;DHT22;21609;49.298;6.844;2023-05-02T00:31:13;18.80;54.90
35497;DHT22;21609;49.298;6.844;2023-05-02T00:33:38;18.80;54.90
35497;DHT22;21609;49.298;6.844;2023-05-02T00:36:04;18.80;54.90
35497;DHT22;21609;49.298;6.844;2023-05-02T00:38:29;18.70;54.90
35497;DHT22;21609;49.298;6.844;2023-05-02T00:40:55;18.80;54.90
35497;DHT22;21609;49.298;6.844;2023-05-02T00:43:21;18.70;55.00
35497;DHT22;21609;49.298;6.844;2023-05-02T00:45:47;18.70;54.90
35497;DHT22;21609;49.298;6.844;2023-05-02T00:48:13;18.70;54.90
35497;DHT22;21609;49.298;6.844;2023-05-02T00:50:40;18.70;54.90
35497;DHT22;21609;49.298;6.844;2023-05-02T00:53:07;18.80;55.00
35497;DHT22;21609;49.298;6.844;2023-05-02T00:55:33;18.70;55.00
35497;DHT22;21609;49.298;6.844;2023-05-02T00:58:18;18.70;55.00
35497;DHT22;21609;49.298;6.844;2023-05-02T01:03:24;18.70;55.00
35497;DHT22;21609;49.298;6.844;2023-05-02T01:06:14;18.70;55.00
35497;DHT22;21609;49.298;6.844;2023-05-02T01:08:59;18.70;55.00
35497;DHT22;21609;49.298;6.844;2023-05-02T01:12:00;18.70;54.90
35497;DHT22;21609;49.298;6.844;2023-05-02T01:14:32;18.70;55.00
35497;DHT22;21609;49.298;6.844;2023-05-02T01:17:02;18.70;55.00
35497;DHT22;21609;49.298;6.844;2023-05-02T01:19:33;18.60;55.00
35497;DHT22;21609;49.298;6.844;2023-05-02T01:22:02;18.60;55.00
35497;DHT22;21609;49.298;6.844;2023-05-02T01:24:31;18.60;55.10
35497;DHT22;21609;49.298;6.844;2023-05-02T01:30:05;18.60;55.00
35497;DHT22;21609;49.298;6.844;2023-05-02T01:32:33;18.60;55.00
35497;DHT22;21609;49.298;6.844;2023-05-02T01:35:02;18.60;55.00
35497;DHT22;21609;49.298;6.844;2023-05-02T01:37:29;18.60;55.10
35497;DHT22;21609;49.298;6.844;2023-05-02T01:39:56;18.60;55.10
35497;DHT22;21609;49.298;6.844;2023-05-02T01:42:24;18.60;55.10
35497;DHT22;21609;49.298;6.844;2023-05-02T01:44:53;18.60;55.00
35497;DHT22;21609;49.298;6.844;2023-05-02T01:47:21;18.60;55.10
35497;DHT22;21609;49.298;6.844;2023-05-02T01:49:47;18.60;55.10
35497;DHT22;21609;49.298;6.844;2023-05-02T01:52:14;18.60;55.10
35497;DHT22;21609;49.298;6.844;2023-05-02T01:54:41;18.60;55.10
35497;DHT22;21609;49.298;6.844;2023-05-02T01:57:08;18.50;55.10
35497;DHT22;21609;49.298;6.844;2023-05-02T01:59:36;18.50;55.10
35497;DHT22;21609;49.298;6.844;2023-05-02T02:02:05;18.50;55.10
35497;DHT22;21609;49.298;6.844;2023-05-02T02:04:34;18.50;55.10
35497;DHT22;21609;49.298;6.844;2023-05-02T02:07:05;18.50;55.00
35497;DHT22;21609;49.298;6.844;2023-05-02T02:09:31;18.50;55.10
35497;DHT22;21609;49.298;6.844;2023-05-02T02:12:02;18.50;55.10
35497;DHT22;21609;49.298;6.844;2023-05-02T02:14:35;18.50;55.10
35497;DHT22;21609;49.298;6.844;2023-05-02T02:17:05;18.50;55.00
35497;DHT22;21609;49.298;6.844;2023-05-02T02:19:33;18.50;55.00
35497;DHT22;21609;49.298;6.844;2023-05-02T02:21:59;18.50;55.20
35497;DHT22;21609;49.298;6.844;2023-05-02T02:24:27;18.50;55.20
35497;DHT22;21609;49.298;6.844;2023-05-02T02:26:54;18.50;55.10
35497;DHT22;21609;49.298;6.844;2023-05-02T02:29:20;18.40;55.00
35497;DHT22;21609;49.298;6.844;2023-05-02T02:31:45;18.50;55.10
35497;DHT22;21609;49.298;6.844;2023-05-02T02:34:11;18.50;55.20
35497;DHT22;21609;49.298;6.844;2023-05-02T02:39:59;18.40;55.10
35497;DHT22;21609;49.298;6.844;2023-05-02T02:53:05;18.40;55.10
35497;DHT22;21609;49.298;6.844;2023-05-02T02:58:57;18.40;55.10
35497;DHT22;21609;49.298;6.844;2023-05-02T03:01:26;18.40;55.10
35497;DHT22;21609;49.298;6.844;2023-05-02T03:03:56;18.40;55.20
35497;DHT22;21609;49.298;6.844;2023-05-02T03:06:23;18.40;55.10
35497;DHT22;21609;49.298;6.844;2023-05-02T03:08:48;18.40;55.10
35497;DHT22;21609;49.298;6.844;2023-05-02T03:11:14;18.30;55.70
35497;DHT22;21609;49.298;6.844;2023-05-02T03:13:40;18.30;55.10
35497;DHT22;21609;49.298;6.844;2023-05-02T03:16:30;18.30;55.10
35497;DHT22;21609;49.298;6.844;2023-05-02T03:18:57;18.30;55.20
35497;DHT22;21609;49.298;6.844;2023-05-02T03:21:22;18.30;55.10
35497;DHT22;21609;49.298;6.844;2023-05-02T03:23:48;18.30;55.10
35497;DHT22;21609;49.298;6.844;2023-05-02T03:26:14;18.30;55.10
35497;DHT22;21609;49.298;6.844;2023-05-02T03:28:39;18.30;55.00
35497;DHT22;21609;49.298;6.844;2023-05-02T03:31:05;18.30;55.10
35497;DHT22;21609;49.298;6.844;2023-05-02T03:33:30;18.30;55.10
35497;DHT22;21609;49.298;6.844;2023-05-02T03:35:56;18.30;55.10
35497;DHT22;21609;49.298;6.844;2023-05-02T03:38:22;18.30;55.20
35497;DHT22;21609;49.298;6.844;2023-05-02T03:40:48;18.30;55.10
35497;DHT22;21609;49.298;6.844;2023-05-02T03:43:13;18.30;55.20
35497;DHT22;21609;49.298;6.844;2023-05-02T03:45:39;18.30;55.20
35497;DHT22;21609;49.298;6.844;2023-05-02T03:48:05;18.20;55.00
35497;DHT22;21609;49.298;6.844;2023-05-02T03:50:30;18.20;55.10
35497;DHT22;21609;49.298;6.844;2023-05-02T03:52:56;18.20;55.00
35497;DHT22;21609;49.298;6.844;2023-05-02T03:55:22;18.20;55.10
35497;DHT22;21609;49.298;6.844;2023-05-02T03:57:48;18.20;55.10
35497;DHT22;21609;49.298;6.844;2023-05-02T04:00:13;18.20;55.10
35497;DHT22;21609;49.298;6.844;2023-05-02T04:02:39;18.20;55.20
35497;DHT22;21609;49.298;6.844;2023-05-02T04:05:05;18.20;55.20
35497;DHT22;21609;49.298;6.844;2023-05-02T04:07:30;18.20;55.20
35497;DHT22;21609;49.298;6.844;2023-05-02T04:09:56;18.20;55.10
35497;DHT22;21609;49.298;6.844;2023-05-02T04:12:21;18.20;55.10
35497;DHT22;21609;49.298;6.844;2023-05-02T04:14:47;18.20;55.10
35497;DHT22;21609;49.298;6.844;2023-05-02T04:17:13;18.10;55.10
35497;DHT22;21609;49.298;6.844;2023-05-02T04:19:40;18.10;55.10
35497;DHT22;21609;49.298;6.844;2023-05-02T04:22:05;18.10;55.10
35497;DHT22;21609;49.298;6.844;2023-05-02T04:24:31;18.10;55.20
35497;DHT22;21609;49.298;6.844;2023-05-02T04:26:56;18.10;55.10
35497;DHT22;21609;49.298;6.844;2023-05-02T04:29:22;18.10;55.00
35497;DHT22;21609;49.298;6.844;2023-05-02T04:31:47;18.10;55.10
35497;DHT22;21609;49.298;6.844;2023-05-02T04:34:13;18.10;55.20
35497;DHT22;21609;49.298;6.844;2023-05-02T04:36:39;18.10;55.20
35497;DHT22;21609;49.298;6.844;2023-05-02T04:39:04;18.10;55.10
35497;DHT22;21609;49.298;6.844;2023-05-02T04:41:32;18.10;55.20
35497;DHT22;21609;49.298;6.844;2023-05-02T04:43:58;18.10;55.20
35497;DHT22;21609;49.298;6.844;2023-05-02T04:46:23;18.10;55.10
35497;DHT22;21609;49.298;6.844;2023-05-02T04:48:49;18.10;55.10
35497;DHT22;21609;49.298;6.844;2023-05-02T04:51:14;18.00;55.20
35497;DHT22;21609;49.298;6.844;2023-05-02T04:53:40;18.10;55.20
35497;DHT22;21609;49.298;6.844;2023-05-02T04:56:06;18.10;55.10
35497;DHT22;21609;49.298;6.844;2023-05-02T04:58:32;18.10;55.10
35497;DHT22;21609;49.298;6.844;2023-05-02T05:00:59;18.10;55.10
35497;DHT22;21609;49.298;6.844;2023-05-02T05:03:26;18.00;55.10
35497;DHT22;21609;49.298;6.844;2023-05-02T05:05:54;18.00;55.10
35497;DHT22;21609;49.298;6.844;2023-05-02T05:08:19;18.00;55.10
35497;DHT22;21609;49.298;6.844;2023-05-02T05:10:45;18.00;55.00
35497;DHT22;21609;49.298;6.844;2023-05-02T05:13:11;18.00;55.00
35497;DHT22;21609;49.298;6.844;2023-05-02T05:15:38;18.10;54.90
35497;DHT22;21609;49.298;6.844;2023-05-02T05:18:04;18.10;54.90
35497;DHT22;21609;49.298;6.844;2023-05-02T05:20:30;18.10;54.90
35497;DHT22;21609;49.298;6.844;2023-05-02T05:22:56;18.10;54.90
35497;DHT22;21609;49.298;6.844;2023-05-02T05:25:22;18.10;54.80
35497;DHT22;21609;49.298;6.844;2023-05-02T05:27:47;18.10;54.80
35497;DHT22;21609;49.298;6.844;2023-05-02T05:30:13;18.10;54.80
35497;DHT22;21609;49.298;6.844;2023-05-02T05:32:39;18.10;55.40
35497;DHT22;21609;49.298;6.844;2023-05-02T05:35:04;18.10;54.80
35497;DHT22;21609;49.298;6.844;2023-05-02T05:37:30;18.10;54.80
35497;DHT22;21609;49.298;6.844;2023-05-02T05:39:55;18.10;54.80
35497;DHT22;21609;49.298;6.844;2023-05-02T05:42:21;18.10;54.90
35497;DHT22;21609;49.298;6.844;2023-05-02T05:44:47;18.10;54.80
35497;DHT22;21609;49.298;6.844;2023-05-02T05:47:18;18.10;54.80
35497;DHT22;21609;49.298;6.844;2023-05-02T05:49:43;18.10;54.80
35497;DHT22;21609;49.298;6.844;2023-05-02T05:52:09;18.20;55.00
35497;DHT22;21609;49.298;6.844;2023-05-02T05:54:34;18.20;54.90
35497;DHT22;21609;49.298;6.844;2023-05-02T05:57:00;18.20;55.00
35497;DHT22;21609;49.298;6.844;2023-05-02T05:59:25;18.20;55.00
35497;DHT22;21609;49.298;6.844;2023-05-02T06:01:51;18.20;55.00
35497;DHT22;21609;49.298;6.844;2023-05-02T06:04:18;18.10;54.90
35497;DHT22;21609;49.298;6.844;2023-05-02T06:06:43;18.20;55.30
35497;DHT22;21609;49.298;6.844;2023-05-02T06:09:09;18.20;55.20
35497;DHT22;21609;49.298;6.844;2023-05-02T06:11:36;18.20;55.30
35497;DHT22;21609;49.298;6.844;2023-05-02T06:14:02;18.30;55.20
35497;DHT22;21609;49.298;6.844;2023-05-02T06:16:27;18.30;55.20
35497;DHT22;21609;49.298;6.844;2023-05-02T06:18:53;18.30;55.00
35497;DHT22;21609;49.298;6.844;2023-05-02T06:21:19;18.30;55.10
35497;DHT22;21609;49.298;6.844;2023-05-02T06:23:44;18.30;55.20
35497;DHT22;21609;49.298;6.844;2023-05-02T06:26:10;18.30;55.20
35497;DHT22;21609;49.298;6.844;2023-05-02T06:28:36;18.40;55.10
35497;DHT22;21609;49.298;6.844;2023-05-02T06:31:03;18.30;55.00
35497;DHT22;21609;49.298;6.844;2023-05-02T06:33:31;18.40;55.10
35497;DHT22;21609;49.298;6.844;2023-05-02T06:35:57;18.40;55.10
35497;DHT22;21609;49.298;6.844;2023-05-02T06:38:23;18.40;55.10
35497;DHT22;21609;49.298;6.844;2023-05-02T06:40:49;18.50;54.90
35497;DHT22;21609;49.298;6.844;2023-05-02T06:43:15;18.50;55.00
35497;DHT22;21609;49.298;6.844;2023-05-02T06:45:41;18.40;55.00
35497;DHT22;21609;49.298;6.844;2023-05-02T06:48:07;18.40;55.20
35497;DHT22;21609;49.298;6.844;2023-05-02T06:50:33;18.50;55.10
35497;DHT22;21609;49.298;6.844;2023-05-02T06:52:59;18.40;55.60
35497;DHT22;21609;49.298;6.844;2023-05-02T06:55:25;18.50;55.10
35497;DHT22;21609;49.298;6.844;2023-05-02T06:57:51;18.40;54.80
35497;DHT22;21609;49.298;6.844;2023-05-02T07:00:18;18.50;55.30
35497;DHT22;21609;49.298;6.844;2023-05-02T07:02:45;18.50;55.00
35497;DHT22;21609;49.298;6.844;2023-05-02T07:05:11;18.50;55.00
35497;DHT22;21609;49.298;6.844;2023-05-02T07:07:37;18.50;55.00
35497;DHT22;21609;49.298;6.844;2023-05-02T07:10:03;18.60;55.00
35497;DHT22;21609;49.298;6.844;2023-05-02T07:12:28;18.60;55.20
35497;DHT22;21609;49.298;6.844;2023-05-02T07:14:54;18.60;55.00
35497;DHT22;21609;49.298;6.844;2023-05-02T07:17:20;18.60;55.30
35497;DHT22;21609;49.298;6.844;2023-05-02T07:19:46;18.60;55.20
35497;DHT22;21609;49.298;6.844;2023-05-02T07:22:11;18.60;55.10
35497;DHT22;21609;49.298;6.844;2023-05-02T07:24:41;18.60;55.30
35497;DHT22;21609;49.298;6.844;2023-05-02T07:27:11;18.60;55.30
35497;DHT22;21609;49.298;6.844;2023-05-02T07:29:37;18.50;55.10
35497;DHT22;21609;49.298;6.844;2023-05-02T07:32:02;18.50;55.20
35497;DHT22;21609;49.298;6.844;2023-05-02T07:34:28;18.50;55.30
35497;DHT22;21609;49.298;6.844;2023-05-02T07:36:54;18.50;55.40
35497;DHT22;21609;49.298;6.844;2023-05-02T07:39:20;18.50;55.20
35497;DHT22;21609;49.298;6.844;2023-05-02T07:41:46;18.50;55.20
35497;DHT22;21609;49.298;6.844;2023-05-02T07:44:11;18.50;55.40
35497;DHT22;21609;49.298;6.844;2023-05-02T07:46:37;18.50;55.50
35497;DHT22;21609;49.298;6.844;2023-05-02T07:49:02;18.50;55.30
35497;DHT22;21609;49.298;6.844;2023-05-02T07:51:28;18.50;55.40
35497;DHT22;21609;49.298;6.844;2023-05-02T07:53:54;18.50;55.40
35497;DHT22;21609;49.298;6.844;2023-05-02T07:56:23;18.50;55.40
35497;DHT22;21609;49.298;6.844;2023-05-02T07:58:49;18.50;55.40
35497;DHT22;21609;49.298;6.844;2023-05-02T08:01:16;18.50;55.10
35497;DHT22;21609;49.298;6.844;2023-05-02T08:03:42;18.50;55.30
35497;DHT22;21609;49.298;6.844;2023-05-02T08:06:07;18.50;55.30
35497;DHT22;21609;49.298;6.844;2023-05-02T08:08:34;18.50;55.30
35497;DHT22;21609;49.298;6.844;2023-05-02T08:11:00;18.50;55.30
35497;DHT22;21609;49.298;6.844;2023-05-02T08:13:26;18.50;55.10
35497;DHT22;21609;49.298;6.844;2023-05-02T08:15:51;18.50;55.30
35497;DHT22;21609;49.298;6.844;2023-05-02T08:18:23;18.50;55.30
35497;DHT22;21609;49.298;6.844;2023-05-02T08:20:49;18.50;55.20
35497;DHT22;21609;49.298;6.844;2023-05-02T08:23:15;18.50;55.10
35497;DHT22;21609;49.298;6.844;2023-05-02T08:25:41;18.50;55.30
35497;DHT22;21609;49.298;6.844;2023-05-02T08:28:06;18.50;55.10
35497;DHT22;21609;49.298;6.844;2023-05-02T08:30:32;18.50;55.30
35497;DHT22;21609;49.298;6.844;2023-05-02T08:32:57;18.50;55.30
35497;DHT22;21609;49.298;6.844;2023-05-02T08:35:23;18.50;55.10
35497;DHT22;21609;49.298;6.844;2023-05-02T08:37:48;18.50;55.10
35497;DHT22;21609;49.298;6.844;2023-05-02T08:40:16;18.50;55.10
35497;DHT22;21609;49.298;6.844;2023-05-02T08:42:42;18.50;55.00
35497;DHT22;21609;49.298;6.844;2023-05-02T08:45:11;18.50;55.00
35497;DHT22;21609;49.298;6.844;2023-05-02T08:47:41;18.50;54.90
35497;DHT22;21609;49.298;6.844;2023-05-02T08:50:10;18.50;55.00
35497;DHT22;21609;49.298;6.844;2023-05-02T08:52:37;18.50;55.10
35497;DHT22;21609;49.298;6.844;2023-05-02T08:55:05;18.50;55.00
35497;DHT22;21609;49.298;6.844;2023-05-02T08:57:31;18.50;55.00
35497;DHT22;21609;49.298;6.844;2023-05-02T08:59:57;18.50;55.00
35497;DHT22;21609;49.298;6.844;2023-05-02T09:02:58;18.50;55.10
35497;DHT22;21609;49.298;6.844;2023-05-02T09:05:27;18.50;55.00
35497;DHT22;21609;49.298;6.844;2023-05-02T09:07:53;18.50;55.00
35497;DHT22;21609;49.298;6.844;2023-05-02T09:10:20;18.50;54.90
35497;DHT22;21609;49.298;6.844;2023-05-02T09:12:46;18.50;54.90
35497;DHT22;21609;49.298;6.844;2023-05-02T09:15:13;18.50;55.00
35497;DHT22;21609;49.298;6.844;2023-05-02T09:17:44;18.50;55.10
35497;DHT22;21609;49.298;6.844;2023-05-02T09:20:11;18.50;55.00
35497;DHT22;21609;49.298;6.844;2023-05-02T09:22:37;18.50;55.00
35497;DHT22;21609;49.298;6.844;2023-05-02T09:25:05;18.50;55.00
35497;DHT22;21609;49.298;6.844;2023-05-02T09:27:52;18.50;54.80
35497;DHT22;21609;49.298;6.844;2023-05-02T09:30:23;18.50;54.70
35497;DHT22;21609;49.298;6.844;2023-05-02T09:32:50;18.60;54.80
35497;DHT22;21609;49.298;6.844;2023-05-02T09:35:16;18.60;54.80
35497;DHT22;21609;49.298;6.844;2023-05-02T09:40:18;18.60;54.80
35497;DHT22;21609;49.298;6.844;2023-05-02T09:42:44;18.50;54.70
35497;DHT22;21609;49.298;6.844;2023-05-02T09:45:19;18.60;54.80
35497;DHT22;21609;49.298;6.844;2023-05-02T09:47:46;18.60;54.70
35497;DHT22;21609;49.298;6.844;2023-05-02T09:50:31;18.60;54.80
35497;DHT22;21609;49.298;6.844;2023-05-02T09:53:01;18.60;54.80
35497;DHT22;21609;49.298;6.844;2023-05-02T09:55:27;18.60;54.70
35497;DHT22;21609;49.298;6.844;2023-05-02T09:57:52;18.60;54.70
35497;DHT22;21609;49.298;6.844;2023-05-02T10:00:18;18.60;54.70
35497;DHT22;21609;49.298;6.844;2023-05-02T10:02:46;18.60;54.80
35497;DHT22;21609;49.298;6.844;2023-05-02T10:05:14;18.60;54.80
35497;DHT22;21609;49.298;6.844;2023-05-02T10:07:42;18.60;54.90
35497;DHT22;21609;49.298;6.844;2023-05-02T10:10:13;18.60;54.70
35497;DHT22;21609;49.298;6.844;2023-05-02T10:12:40;18.60;54.70
35497;DHT22;21609;49.298;6.844;2023-05-02T10:15:08;18.60;54.80
35497;DHT22;21609;49.298;6.844;2023-05-02T10:17:39;18.60;54.60
35497;DHT22;21609;49.298;6.844;2023-05-02T10:20:10;18.60;54.50
35497;DHT22;21609;49.298;6.844;2023-05-02T10:22:40;18.70;54.60
35497;DHT22;21609;49.298;6.844;2023-05-02T10:25:07;18.70;54.60
35497;DHT22;21609;49.298;6.844;2023-05-02T10:27:33;18.70;54.60
35497;DHT22;21609;49.298;6.844;2023-05-02T10:29:59;18.70;54.50
35497;DHT22;21609;49.298;6.844;2023-05-02T10:32:27;18.70;54.50
35497;DHT22;21609;49.298;6.844;2023-05-02T10:34:55;18.70;54.50
35497;DHT22;21609;49.298;6.844;2023-05-02T10:37:22;18.70;54.50
35497;DHT22;21609;49.298;6.844;2023-05-02T10:39:49;18.70;54.40
35497;DHT22;21609;49.298;6.844;2023-05-02T10:42:15;18.80;54.50
35497;DHT22;21609;49.298;6.844;2023-05-02T10:44:43;18.80;54.40
35497;DHT22;21609;49.298;6.844;2023-05-02T10:47:22;18.90;54.40
35497;DHT22;21609;49.298;6.844;2023-05-02T10:49:56;18.90;54.30
35497;DHT22;21609;49.298;6.844;2023-05-02T10:52:31;18.90;54.40
35497;DHT22;21609;49.298;6.844;2023-05-02T11:00:31;19.00;54.30
35497;DHT22;21609;49.298;6.844;2023-05-02T11:02:58;19.00;54.30
35497;DHT22;21609;49.298;6.844;2023-05-02T11:05:24;19.10;54.30
35497;DHT22;21609;49.298;6.844;2023-05-02T11:10:39;19.10;54.20
35497;DHT22;21609;49.298;6.844;2023-05-02T11:13:05;19.10;54.30
35497;DHT22;21609;49.298;6.844;2023-05-02T11:18:05;19.20;54.20
35497;DHT22;21609;49.298;6.844;2023-05-02T11:20:39;19.20;54.10
35497;DHT22;21609;49.298;6.844;2023-05-02T11:25:44;19.20;54.10
35497;DHT22;21609;49.298;6.844;2023-05-02T11:28:39;19.30;54.20
35497;DHT22;21609;49.298;6.844;2023-05-02T11:31:06;19.20;54.00
35497;DHT22;21609;49.298;6.844;2023-05-02T11:33:32;19.30;54.10
35497;DHT22;21609;49.298;6.844;2023-05-02T11:35:58;19.30;54.00
35497;DHT22;21609;49.298;6.844;2023-05-02T11:38:24;19.30;54.60
35497;DHT22;21609;49.298;6.844;2023-05-02T11:40:55;19.40;54.10
35497;DHT22;21609;49.298;6.844;2023-05-02T11:43:20;19.40;54.00
35497;DHT22;21609;49.298;6.844;2023-05-02T11:45:46;19.40;53.90
35497;DHT22;21609;49.298;6.844;2023-05-02T11:48:14;19.40;53.90
35497;DHT22;21609;49.298;6.844;2023-05-02T11:50:44;19.50;54.00
35497;DHT22;21609;49.298;6.844;2023-05-02T11:53:11;19.50;53.90
35497;DHT22;21609;49.298;6.844;2023-05-02T11:55:43;19.50;53.90
35497;DHT22;21609;49.298;6.844;2023-05-02T11:58:14;19.60;53.90
35497;DHT22;21609;49.298;6.844;2023-05-02T12:00:40;19.60;53.90
35497;DHT22;21609;49.298;6.844;2023-05-02T12:03:06;19.60;53.70
35497;DHT22;21609;49.298;6.844;2023-05-02T12:05:31;19.70;53.80
35497;DHT22;21609;49.298;6.844;2023-05-02T12:07:57;19.70;53.80
35497;DHT22;21609;49.298;6.844;2023-05-02T12:10:34;19.70;53.70
35497;DHT22;21609;49.298;6.844;2023-05-02T12:13:04;19.80;54.00
35497;DHT22;21609;49.298;6.844;2023-05-02T12:15:30;19.80;53.70
35497;DHT22;21609;49.298;6.844;2023-05-02T12:17:56;19.90;53.70
35497;DHT22;21609;49.298;6.844;2023-05-02T12:20:22;19.90;53.60
35497;DHT22;21609;49.298;6.844;2023-05-02T12:22:47;20.00;53.60
35497;DHT22;21609;49.298;6.844;2023-05-02T12:25:13;20.00;53.60
35497;DHT22;21609;49.298;6.844;2023-05-02T12:27:39;20.00;53.60
35497;DHT22;21609;49.298;6.844;2023-05-02T12:30:05;20.00;53.50
35497;DHT22;21609;49.298;6.844;2023-05-02T12:32:32;20.00;53.40
35497;DHT22;21609;49.298;6.844;2023-05-02T12:34:59;20.00;53.40
35497;DHT22;21609;49.298;6.844;2023-05-02T12:37:26;20.00;53.50
35497;DHT22;21609;49.298;6.844;2023-05-02T12:39:53;20.10;53.60
35497;DHT22;21609;49.298;6.844;2023-05-02T12:42:22;20.20;53.60
35497;DHT22;21609;49.298;6.844;2023-05-02T12:44:48;20.20;53.50
35497;DHT22;21609;49.298;6.844;2023-05-02T12:47:17;20.30;53.50
35497;DHT22;21609;49.298;6.844;2023-05-02T12:49:53;20.30;53.40
35497;DHT22;21609;49.298;6.844;2023-05-02T12:52:20;20.30;53.30
35497;DHT22;21609;49.298;6.844;2023-05-02T12:54:47;20.30;53.30
35497;DHT22;21609;49.298;6.844;2023-05-02T12:57:23;20.30;53.30
35497;DHT22;21609;49.298;6.844;2023-05-02T12:59:51;20.30;53.40
35497;DHT22;21609;49.298;6.844;2023-05-02T13:02:17;20.40;53.50
35497;DHT22;21609;49.298;6.844;2023-05-02T13:04:43;20.40;53.50
35497;DHT22;21609;49.298;6.844;2023-05-02T13:07:08;20.50;53.60
35497;DHT22;21609;49.298;6.844;2023-05-02T13:09:35;20.70;53.50
35497;DHT22;21609;49.298;6.844;2023-05-02T13:12:01;20.80;53.40
35497;DHT22;21609;49.298;6.844;2023-05-02T13:14:30;20.80;53.30
35497;DHT22;21609;49.298;6.844;2023-05-02T13:16:56;20.90;53.10
35497;DHT22;21609;49.298;6.844;2023-05-02T13:19:21;20.80;53.00
35497;DHT22;21609;49.298;6.844;2023-05-02T13:21:47;20.80;53.00
35497;DHT22;21609;49.298;6.844;2023-05-02T13:24:13;20.80;53.10
35497;DHT22;21609;49.298;6.844;2023-05-02T13:26:41;20.70;53.10
35497;DHT22;21609;49.298;6.844;2023-05-02T13:29:07;20.70;53.00
35497;DHT22;21609;49.298;6.844;2023-05-02T13:31:36;20.70;53.00
35497;DHT22;21609;49.298;6.844;2023-05-02T13:34:03;20.70;53.20
35497;DHT22;21609;49.298;6.844;2023-05-02T13:36:29;20.70;53.10
35497;DHT22;21609;49.298;6.844;2023-05-02T13:38:54;20.70;53.00
35497;DHT22;21609;49.298;6.844;2023-05-02T13:41:20;20.70;53.00
35497;DHT22;21609;49.298;6.844;2023-05-02T13:43:46;20.60;53.00
35497;DHT22;21609;49.298;6.844;2023-05-02T13:46:11;20.70;53.00
35497;DHT22;21609;49.298;6.844;2023-05-02T13:48:37;20.70;53.30
35497;DHT22;21609;49.298;6.844;2023-05-02T13:51:02;20.80;53.40
35497;DHT22;21609;49.298;6.844;2023-05-02T13:53:28;20.90;53.30
35497;DHT22;21609;49.298;6.844;2023-05-02T13:55:53;21.10;53.30
35497;DHT22;21609;49.298;6.844;2023-05-02T13:58:19;21.20;53.20
35497;DHT22;21609;49.298;6.844;2023-05-02T14:00:45;21.20;53.20
35497;DHT22;21609;49.298;6.844;2023-05-02T14:03:11;21.30;53.00
35497;DHT22;21609;49.298;6.844;2023-05-02T14:05:38;21.40;53.00
35497;DHT22;21609;49.298;6.844;2023-05-02T14:08:08;21.50;52.90
35497;DHT22;21609;49.298;6.844;2023-05-02T14:10:33;21.60;52.80
35497;DHT22;21609;49.298;6.844;2023-05-02T14:13:01;21.70;52.80
35497;DHT22;21609;49.298;6.844;2023-05-02T14:15:27;21.70;52.80
35497;DHT22;21609;49.298;6.844;2023-05-02T14:17:52;21.80;52.70
35497;DHT22;21609;49.298;6.844;2023-05-02T14:20:18;21.90;52.70
35497;DHT22;21609;49.298;6.844;2023-05-02T14:22:43;21.90;52.50
35497;DHT22;21609;49.298;6.844;2023-05-02T14:25:09;21.90;52.50
35497;DHT22;21609;49.298;6.844;2023-05-02T14:27:34;21.90;52.50
35497;DHT22;21609;49.298;6.844;2023-05-02T14:30:00;22.00;52.50
35497;DHT22;21609;49.298;6.844;2023-05-02T14:32:26;22.00;52.40
35497;DHT22;21609;49.298;6.844;2023-05-02T14:34:51;22.10;52.30
35497;DHT22;21609;49.298;6.844;2023-05-02T14:37:17;22.20;52.30
35497;DHT22;21609;49.298;6.844;2023-05-02T14:39:43;22.20;52.10
35497;DHT22;21609;49.298;6.844;2023-05-02T14:42:10;22.30;52.10
35497;DHT22;21609;49.298;6.844;2023-05-02T14:44:35;22.40;52.10
35497;DHT22;21609;49.298;6.844;2023-05-02T14:47:01;22.50;52.10
35497;DHT22;21609;49.298;6.844;2023-05-02T14:49:27;22.40;51.90
35497;DHT22;21609;49.298;6.844;2023-05-02T14:51:53;22.50;52.00
35497;DHT22;21609;49.298;6.844;2023-05-02T14:54:18;22.50;51.90
35497;DHT22;21609;49.298;6.844;2023-05-02T14:56:44;22.50;51.90
35497;DHT22;21609;49.298;6.844;2023-05-02T14:59:10;22.60;51.90
35497;DHT22;21609;49.298;6.844;2023-05-02T15:01:36;22.70;51.90
35497;DHT22;21609;49.298;6.844;2023-05-02T15:04:02;22.70;51.70
35497;DHT22;21609;49.298;6.844;2023-05-02T15:06:28;22.70;51.70
35497;DHT22;21609;49.298;6.844;2023-05-02T15:08:57;22.80;51.70
35497;DHT22;21609;49.298;6.844;2023-05-02T15:11:23;22.80;51.60
35497;DHT22;21609;49.298;6.844;2023-05-02T15:13:49;22.80;51.60
35497;DHT22;21609;49.298;6.844;2023-05-02T15:16:15;22.90;51.50
35497;DHT22;21609;49.298;6.844;2023-05-02T15:18:40;22.90;51.50
35497;DHT22;21609;49.298;6.844;2023-05-02T15:21:06;22.90;51.40
35497;DHT22;21609;49.298;6.844;2023-05-02T15:23:31;23.00;51.40
35497;DHT22;21609;49.298;6.844;2023-05-02T15:25:57;23.00;51.40
35497;DHT22;21609;49.298;6.844;2023-05-02T15:28:22;22.90;51.40
35497;DHT22;21609;49.298;6.844;2023-05-02T15:30:48;22.90;51.20
35497;DHT22;21609;49.298;6.844;2023-05-02T15:33:14;22.90;51.10
35497;DHT22;21609;49.298;6.844;2023-05-02T15:35:52;22.90;51.30
35497;DHT22;21609;49.298;6.844;2023-05-02T15:38:19;22.80;51.20
35497;DHT22;21609;49.298;6.844;2023-05-02T15:40:52;22.80;51.40
35497;DHT22;21609;49.298;6.844;2023-05-02T15:43:18;22.80;50.90
35497;DHT22;21609;49.298;6.844;2023-05-02T15:45:44;22.80;50.60
35497;DHT22;21609;49.298;6.844;2023-05-02T15:48:14;22.70;50.70
35497;DHT22;21609;49.298;6.844;2023-05-02T15:50:41;22.60;50.80
35497;DHT22;21609;49.298;6.844;2023-05-02T15:53:07;22.50;50.70
35497;DHT22;21609;49.298;6.844;2023-05-02T15:55:32;22.50;50.80
35497;DHT22;21609;49.298;6.844;2023-05-02T15:57:58;22.50;51.50
35497;DHT22;21609;49.298;6.844;2023-05-02T16:00:23;22.40;50.80
35497;DHT22;21609;49.298;6.844;2023-05-02T16:02:49;22.40;51.60
35497;DHT22;21609;49.298;6.844;2023-05-02T16:05:15;22.40;51.10
35497;DHT22;21609;49.298;6.844;2023-05-02T16:07:40;22.40;51.20
35497;DHT22;21609;49.298;6.844;2023-05-02T16:10:06;22.30;50.70